sensor_id;sensor_type;location;lat;lon;timestamp;pressure;altitude;pressure_sealevel;temperature
62107;BMP280;48087;32.600;-97.100;2023-01-26T00:01:19;;;;5.33328
62107;BMP280;48087;32.600;-97.100;2023-01-26T00:06:39;;;;5.111060000000001
62107;BMP280;48087;32.600;-97.100;2023-01-26T00:11:43;;;;4.722175
62107;BMP280;48087;32.600;-97.100;2023-01-26T00:16:47;;;;4.388844999999999
62107;BMP280;48087;32.600;-97.100;2023-01-26T00:21:51;;;;3.9444050000000006
62107;BMP280;48087;32.600;-97.100;2023-01-26T00:26:56;;;;3.611075
62107;BMP280;48087;32.600;-97.100;2023-01-26T00:31:59;;;;3.388855000000001
62107;BMP280;48087;32.600;-97.100;2023-01-26T00:37:03;;;;3.499964999999998
62107;BMP280;48087;32.600;-97.100;2023-01-26T00:42:07;;;;3.277744999999999
62107;BMP280;48087;32.600;-97.100;2023-01-26T00:47:12;;;;2.9999699999999994
62107;BMP280;48087;32.600;-97.100;2023-01-26T00:52:15;;;;2.7221949999999993
62107;BMP280;48087;32.600;-97.100;2023-01-26T00:57:19;;;;2.8888600000000015
62107;BMP280;48087;32.600;-97.100;2023-01-26T01:02:22;;;;3.055525
62107;BMP280;48087;32.600;-97.100;2023-01-26T01:07:27;;;;3.2221899999999986
62107;BMP280;48087;32.600;-97.100;2023-01-26T01:12:32;;;;3.1666350000000016
62107;BMP280;48087;32.600;-97.100;2023-01-26T01:17:36;;;;2.8888600000000015
62107;BMP280;48087;32.600;-97.100;2023-01-26T01:22:39;;;;2.6666399999999983
62107;BMP280;48087;32.600;-97.100;2023-01-26T01:27:43;;;;2.5555300000000005
62107;BMP280;48087;32.600;-97.100;2023-01-26T01:32:47;;;;2.7221949999999993
62107;BMP280;48087;32.600;-97.100;2023-01-26T01:37:51;;;;2.6110850000000014
62107;BMP280;48087;32.600;-97.100;2023-01-26T01:42:56;;;;2.77775
62107;BMP280;48087;32.600;-97.100;2023-01-26T01:48:00;;;;2.8888600000000015
62107;BMP280;48087;32.600;-97.100;2023-01-26T01:53:04;;;;3.055525
62107;BMP280;48087;32.600;-97.100;2023-01-26T01:58:08;;;;2.9999699999999994
62107;BMP280;48087;32.600;-97.100;2023-01-26T02:03:11;;;;2.9999699999999994
62107;BMP280;48087;32.600;-97.100;2023-01-26T02:08:16;;;;3.1110800000000007
62107;BMP280;48087;32.600;-97.100;2023-01-26T02:13:19;;;;3.1110800000000007
62107;BMP280;48087;32.600;-97.100;2023-01-26T02:18:23;;;;3.1666350000000016
62107;BMP280;48087;32.600;-97.100;2023-01-26T02:23:30;;;;3.055525
62107;BMP280;48087;32.600;-97.100;2023-01-26T02:28:31;;;;2.9444149999999985
62107;BMP280;48087;32.600;-97.100;2023-01-26T02:33:35;;;;2.8888600000000015
62107;BMP280;48087;32.600;-97.100;2023-01-26T02:38:40;;;;2.8333050000000006
62107;BMP280;48087;32.600;-97.100;2023-01-26T02:43:43;;;;2.77775
62107;BMP280;48087;32.600;-97.100;2023-01-26T02:48:46;;;;2.8888600000000015
62107;BMP280;48087;32.600;-97.100;2023-01-26T02:53:50;;;;2.8333050000000006
62107;BMP280;48087;32.600;-97.100;2023-01-26T02:58:55;;;;2.77775
62107;BMP280;48087;32.600;-97.100;2023-01-26T03:03:59;;;;2.77775
62107;BMP280;48087;32.600;-97.100;2023-01-26T03:09:03;;;;2.77775
62107;BMP280;48087;32.600;-97.100;2023-01-26T03:14:07;;;;2.77775
62107;BMP280;48087;32.600;-97.100;2023-01-26T03:19:12;;;;2.7221949999999993
62107;BMP280;48087;32.600;-97.100;2023-01-26T03:24:14;;;;2.7221949999999993
62107;BMP280;48087;32.600;-97.100;2023-01-26T03:29:20;;;;2.6666399999999983
62107;BMP280;48087;32.600;-97.100;2023-01-26T03:34:22;;;;2.7221949999999993
62107;BMP280;48087;32.600;-97.100;2023-01-26T03:39:27;;;;2.6110850000000014
62107;BMP280;48087;32.600;-97.100;2023-01-26T03:44:30;;;;2.5555300000000005
62107;BMP280;48087;32.600;-97.100;2023-01-26T03:49:35;;;;2.5555300000000005
62107;BMP280;48087;32.600;-97.100;2023-01-26T03:54:38;;;;2.499975
62107;BMP280;48087;32.600;-97.100;2023-01-26T03:59:43;;;;2.499975
62107;BMP280;48087;32.600;-97.100;2023-01-26T04:04:46;;;;2.5555300000000005
62107;BMP280;48087;32.600;-97.100;2023-01-26T04:09:51;;;;2.6666399999999983
62107;BMP280;48087;32.600;-97.100;2023-01-26T04:14:54;;;;2.77775
62107;BMP280;48087;32.600;-97.100;2023-01-26T04:19:59;;;;2.9999699999999994
62107;BMP280;48087;32.600;-97.100;2023-01-26T04:25:02;;;;3.1666350000000016
62107;BMP280;48087;32.600;-97.100;2023-01-26T04:30:08;;;;3.277744999999999
62107;BMP280;48087;32.600;-97.100;2023-01-26T04:35:10;;;;3.499964999999998
62107;BMP280;48087;32.600;-97.100;2023-01-26T04:40:15;;;;3.7221850000000014
62107;BMP280;48087;32.600;-97.100;2023-01-26T04:45:18;;;;3.9444050000000006
62107;BMP280;48087;32.600;-97.100;2023-01-26T04:50:22;;;;4.111069999999999
62107;BMP280;48087;32.600;-97.100;2023-01-26T04:55:26;;;;4.222180000000001
62107;BMP280;48087;32.600;-97.100;2023-01-26T05:00:30;;;;4.055514999999998
62107;BMP280;48087;32.600;-97.100;2023-01-26T05:05:34;;;;4.222180000000001
62107;BMP280;48087;32.600;-97.100;2023-01-26T05:10:39;;;;4.166625
62107;BMP280;48087;32.600;-97.100;2023-01-26T05:15:42;;;;4.166625
62107;BMP280;48087;32.600;-97.100;2023-01-26T05:20:47;;;;4.222180000000001
62107;BMP280;48087;32.600;-97.100;2023-01-26T05:25:50;;;;4.166625
62107;BMP280;48087;32.600;-97.100;2023-01-26T05:30:54;;;;4.055514999999998
62107;BMP280;48087;32.600;-97.100;2023-01-26T05:36:01;;;;3.9444050000000006
62107;BMP280;48087;32.600;-97.100;2023-01-26T05:41:02;;;;3.8888499999999997
62107;BMP280;48087;32.600;-97.100;2023-01-26T05:46:06;;;;3.8888499999999997
62107;BMP280;48087;32.600;-97.100;2023-01-26T05:51:10;;;;3.8888499999999997
62107;BMP280;48087;32.600;-97.100;2023-01-26T05:56:14;;;;3.8332949999999992
62107;BMP280;48087;32.600;-97.100;2023-01-26T06:01:34;;;;3.8332949999999992
62107;BMP280;48087;32.600;-97.100;2023-01-26T06:06:37;;;;3.6666300000000005
62107;BMP280;48087;32.600;-97.100;2023-01-26T06:11:43;;;;3.7221850000000014
62107;BMP280;48087;32.600;-97.100;2023-01-26T06:16:46;;;;3.7221850000000014
62107;BMP280;48087;32.600;-97.100;2023-01-26T06:21:51;;;;3.611075
62107;BMP280;48087;32.600;-97.100;2023-01-26T06:26:53;;;;3.499964999999998
62107;BMP280;48087;32.600;-97.100;2023-01-26T06:31:59;;;;3.277744999999999
62107;BMP280;48087;32.600;-97.100;2023-01-26T06:37:01;;;;3.1666350000000016
62107;BMP280;48087;32.600;-97.100;2023-01-26T06:42:07;;;;2.9999699999999994
62107;BMP280;48087;32.600;-97.100;2023-01-26T06:47:10;;;;2.8888600000000015
62107;BMP280;48087;32.600;-97.100;2023-01-26T06:52:20;;;;2.8333050000000006
62107;BMP280;48087;32.600;-97.100;2023-01-26T06:57:17;;;;2.8333050000000006
62107;BMP280;48087;32.600;-97.100;2023-01-26T07:02:23;;;;2.8333050000000006
62107;BMP280;48087;32.600;-97.100;2023-01-26T07:07:25;;;;2.8888600000000015
62107;BMP280;48087;32.600;-97.100;2023-01-26T07:12:39;;;;2.8333050000000006
62107;BMP280;48087;32.600;-97.100;2023-01-26T07:17:34;;;;2.77775
62107;BMP280;48087;32.600;-97.100;2023-01-26T07:22:39;;;;2.8333050000000006
62107;BMP280;48087;32.600;-97.100;2023-01-26T07:27:41;;;;2.77775
62107;BMP280;48087;32.600;-97.100;2023-01-26T07:32:46;;;;2.77775
62107;BMP280;48087;32.600;-97.100;2023-01-26T07:37:49;;;;2.7221949999999993
62107;BMP280;48087;32.600;-97.100;2023-01-26T07:42:55;;;;2.6666399999999983
62107;BMP280;48087;32.600;-97.100;2023-01-26T07:47:57;;;;2.7221949999999993
62107;BMP280;48087;32.600;-97.100;2023-01-26T07:53:02;;;;2.6110850000000014
62107;BMP280;48087;32.600;-97.100;2023-01-26T07:58:05;;;;2.6110850000000014
62107;BMP280;48087;32.600;-97.100;2023-01-26T08:03:11;;;;2.5555300000000005
62107;BMP280;48087;32.600;-97.100;2023-01-26T08:08:13;;;;2.444419999999999
62107;BMP280;48087;32.600;-97.100;2023-01-26T08:13:19;;;;2.3888649999999982
62107;BMP280;48087;32.600;-97.100;2023-01-26T08:18:21;;;;2.3333100000000013
62107;BMP280;48087;32.600;-97.100;2023-01-26T08:23:26;;;;2.3333100000000013
62107;BMP280;48087;32.600;-97.100;2023-01-26T08:28:29;;;;2.2222
62107;BMP280;48087;32.600;-97.100;2023-01-26T08:33:35;;;;1.9999800000000008
62107;BMP280;48087;32.600;-97.100;2023-01-26T08:38:37;;;;1.9444249999999998
62107;BMP280;48087;32.600;-97.100;2023-01-26T08:43:43;;;;1.9444249999999998
62107;BMP280;48087;32.600;-97.100;2023-01-26T08:48:46;;;;1.8333149999999985
62107;BMP280;48087;32.600;-97.100;2023-01-26T08:53:49;;;;1.8333149999999985
62107;BMP280;48087;32.600;-97.100;2023-01-26T08:58:54;;;;1.7777600000000016
62107;BMP280;48087;32.600;-97.100;2023-01-26T09:03:58;;;;1.7222050000000007
62107;BMP280;48087;32.600;-97.100;2023-01-26T09:09:02;;;;1.66665
62107;BMP280;48087;32.600;-97.100;2023-01-26T09:14:05;;;;1.6110949999999993
62107;BMP280;48087;32.600;-97.100;2023-01-26T09:19:10;;;;1.4999850000000015
62107;BMP280;48087;32.600;-97.100;2023-01-26T09:24:14;;;;1.3333199999999992
62107;BMP280;48087;32.600;-97.100;2023-01-26T09:29:17;;;;1.3333199999999992
62107;BMP280;48087;32.600;-97.100;2023-01-26T09:34:22;;;;1.2222100000000016
62107;BMP280;48087;32.600;-97.100;2023-01-26T09:39:26;;;;1.1111
62107;BMP280;48087;32.600;-97.100;2023-01-26T09:44:31;;;;1.1666550000000007
62107;BMP280;48087;32.600;-97.100;2023-01-26T09:49:40;;;;1.2222100000000016
62107;BMP280;48087;32.600;-97.100;2023-01-26T09:54:39;;;;1.1111
62107;BMP280;48087;32.600;-97.100;2023-01-26T09:59:43;;;;1.1111
62107;BMP280;48087;32.600;-97.100;2023-01-26T10:04:48;;;;0.9999899999999984
62107;BMP280;48087;32.600;-97.100;2023-01-26T10:09:50;;;;0.9444350000000016
62107;BMP280;48087;32.600;-97.100;2023-01-26T10:14:56;;;;0.9444350000000016
62107;BMP280;48087;32.600;-97.100;2023-01-26T10:19:59;;;;0.9444350000000016
62107;BMP280;48087;32.600;-97.100;2023-01-26T10:25:02;;;;1.0555449999999993
62107;BMP280;48087;32.600;-97.100;2023-01-26T10:30:08;;;;1.2777649999999985
62107;BMP280;48087;32.600;-97.100;2023-01-26T10:35:14;;;;1.3333199999999992
62107;BMP280;48087;32.600;-97.100;2023-01-26T10:40:14;;;;1.2777649999999985
62107;BMP280;48087;32.600;-97.100;2023-01-26T10:45:27;;;;1.2777649999999985
62107;BMP280;48087;32.600;-97.100;2023-01-26T10:55:27;;;;1.2222100000000016
62107;BMP280;48087;32.600;-97.100;2023-01-26T11:00:29;;;;1.1666550000000007
62107;BMP280;48087;32.600;-97.100;2023-01-26T11:05:34;;;;1.1666550000000007
62107;BMP280;48087;32.600;-97.100;2023-01-26T11:10:38;;;;1.2222100000000016
62107;BMP280;48087;32.600;-97.100;2023-01-26T11:15:43;;;;1.2222100000000016
62107;BMP280;48087;32.600;-97.100;2023-01-26T11:20:47;;;;1.1666550000000007
62107;BMP280;48087;32.600;-97.100;2023-01-26T11:25:59;;;;1.2222100000000016
62107;BMP280;48087;32.600;-97.100;2023-01-26T11:30:56;;;;1.1111
62107;BMP280;48087;32.600;-97.100;2023-01-26T11:36:00;;;;1.1111
62107;BMP280;48087;32.600;-97.100;2023-01-26T11:41:09;;;;0.9999899999999984
62107;BMP280;48087;32.600;-97.100;2023-01-26T11:46:10;;;;0.8888800000000008
62107;BMP280;48087;32.600;-97.100;2023-01-26T11:51:11;;;;0.8888800000000008
62107;BMP280;48087;32.600;-97.100;2023-01-26T11:56:17;;;;0.9999899999999984
62107;BMP280;48087;32.600;-97.100;2023-01-26T12:01:19;;;;1.0555449999999993
62107;BMP280;48087;32.600;-97.100;2023-01-26T12:06:25;;;;0.9999899999999984
62107;BMP280;48087;32.600;-97.100;2023-01-26T12:11:28;;;;0.8888800000000008
62107;BMP280;48087;32.600;-97.100;2023-01-26T12:16:34;;;;0.9444350000000016
62107;BMP280;48087;32.600;-97.100;2023-01-26T12:21:34;;;;0.8888800000000008
62107;BMP280;48087;32.600;-97.100;2023-01-26T12:26:40;;;;0.833325
62107;BMP280;48087;32.600;-97.100;2023-01-26T12:31:44;;;;0.7777699999999992
62107;BMP280;48087;32.600;-97.100;2023-01-26T12:36:47;;;;0.7777699999999992
62107;BMP280;48087;32.600;-97.100;2023-01-26T12:41:57;;;;0.7222149999999984
62107;BMP280;48087;32.600;-97.100;2023-01-26T12:46:55;;;;0.6666600000000016
62107;BMP280;48087;32.600;-97.100;2023-01-26T12:51:59;;;;0.7222149999999984
62107;BMP280;48087;32.600;-97.100;2023-01-26T12:57:03;;;;0.7777699999999992
62107;BMP280;48087;32.600;-97.100;2023-01-26T13:02:10;;;;0.7777699999999992
62107;BMP280;48087;32.600;-97.100;2023-01-26T13:07:25;;;;0.833325
62107;BMP280;48087;32.600;-97.100;2023-01-26T13:12:42;;;;0.7777699999999992
62107;BMP280;48087;32.600;-97.100;2023-01-26T13:17:51;;;;0.7222149999999984
62107;BMP280;48087;32.600;-97.100;2023-01-26T13:22:36;;;;0.7777699999999992
62107;BMP280;48087;32.600;-97.100;2023-01-26T13:27:27;;;;0.6111050000000008
62107;BMP280;48087;32.600;-97.100;2023-01-26T13:37:37;;;;0.6111050000000008
62107;BMP280;48087;32.600;-97.100;2023-01-26T13:42:40;;;;0.6111050000000008
62107;BMP280;48087;32.600;-97.100;2023-01-26T13:47:42;;;;0.833325
62107;BMP280;48087;32.600;-97.100;2023-01-26T13:52:46;;;;0.9999899999999984
62107;BMP280;48087;32.600;-97.100;2023-01-26T13:58:08;;;;1.2777649999999985
62107;BMP280;48087;32.600;-97.100;2023-01-26T14:02:53;;;;1.4999850000000015
62107;BMP280;48087;32.600;-97.100;2023-01-26T14:07:58;;;;1.7777600000000016
62107;BMP280;48087;32.600;-97.100;2023-01-26T14:13:01;;;;2.166644999999999
62107;BMP280;48087;32.600;-97.100;2023-01-26T14:18:13;;;;2.3333100000000013
62107;BMP280;48087;32.600;-97.100;2023-01-26T14:23:11;;;;2.6110850000000014
62107;BMP280;48087;32.600;-97.100;2023-01-26T14:28:14;;;;2.9999699999999994
62107;BMP280;48087;32.600;-97.100;2023-01-26T14:33:17;;;;3.277744999999999
62107;BMP280;48087;32.600;-97.100;2023-01-26T14:38:21;;;;3.388855000000001
62107;BMP280;48087;32.600;-97.100;2023-01-26T14:43:25;;;;3.611075
62107;BMP280;48087;32.600;-97.100;2023-01-26T14:48:30;;;;3.9444050000000006
62107;BMP280;48087;32.600;-97.100;2023-01-26T14:53:33;;;;3.7221850000000014
62107;BMP280;48087;32.600;-97.100;2023-01-26T14:58:38;;;;3.8888499999999997
62107;BMP280;48087;32.600;-97.100;2023-01-26T15:03:41;;;;3.9444050000000006
62107;BMP280;48087;32.600;-97.100;2023-01-26T15:08:53;;;;3.8888499999999997
62107;BMP280;48087;32.600;-97.100;2023-01-26T15:13:51;;;;4.055514999999998
62107;BMP280;48087;32.600;-97.100;2023-01-26T15:19:00;;;;4.166625
62107;BMP280;48087;32.600;-97.100;2023-01-26T15:23:57;;;;4.4444
62107;BMP280;48087;32.600;-97.100;2023-01-26T15:29:01;;;;4.499955000000001
62107;BMP280;48087;32.600;-97.100;2023-01-26T15:34:25;;;;4.722175
62107;BMP280;48087;32.600;-97.100;2023-01-26T15:39:10;;;;4.833285000000002
62107;BMP280;48087;32.600;-97.100;2023-01-26T15:44:14;;;;4.888839999999998
62107;BMP280;48087;32.600;-97.100;2023-01-26T15:49:16;;;;5.166614999999998
62107;BMP280;48087;32.600;-97.100;2023-01-26T15:54:21;;;;5.277725
62107;BMP280;48087;32.600;-97.100;2023-01-26T15:59:24;;;;5.388835000000001
62107;BMP280;48087;32.600;-97.100;2023-01-26T16:04:29;;;;5.5555
62107;BMP280;48087;32.600;-97.100;2023-01-26T16:09:33;;;;5.722164999999999
62107;BMP280;48087;32.600;-97.100;2023-01-26T16:14:37;;;;6.11105
62107;BMP280;48087;32.600;-97.100;2023-01-26T16:19:40;;;;6.499935000000002
62107;BMP280;48087;32.600;-97.100;2023-01-26T16:24:45;;;;6.611044999999999
62107;BMP280;48087;32.600;-97.100;2023-01-26T16:29:48;;;;6.833264999999998
62107;BMP280;48087;32.600;-97.100;2023-01-26T16:34:53;;;;6.999930000000001
62107;BMP280;48087;32.600;-97.100;2023-01-26T16:39:56;;;;7.111039999999998
62107;BMP280;48087;32.600;-97.100;2023-01-26T16:45:00;;;;7.388814999999998
62107;BMP280;48087;32.600;-97.100;2023-01-26T16:50:04;;;;7.611035000000001
62107;BMP280;48087;32.600;-97.100;2023-01-26T16:55:10;;;;7.777699999999999
62107;BMP280;48087;32.600;-97.100;2023-01-26T17:00:13;;;;7.944364999999999
62107;BMP280;48087;32.600;-97.100;2023-01-26T17:05:17;;;;8.277695
62107;BMP280;48087;32.600;-97.100;2023-01-26T17:10:20;;;;8.499914999999998
62107;BMP280;48087;32.600;-97.100;2023-01-26T17:15:25;;;;8.777689999999998
62107;BMP280;48087;32.600;-97.100;2023-01-26T17:20:28;;;;8.611025
62107;BMP280;48087;32.600;-97.100;2023-01-26T17:25:33;;;;9.055464999999998
62107;BMP280;48087;32.600;-97.100;2023-01-26T17:30:36;;;;9.11102
62107;BMP280;48087;32.600;-97.100;2023-01-26T17:35:41;;;;8.999910000000002
62107;BMP280;48087;32.600;-97.100;2023-01-26T17:40:44;;;;9.055464999999998
62107;BMP280;48087;32.600;-97.100;2023-01-26T17:45:49;;;;9.277685000000002
62107;BMP280;48087;32.600;-97.100;2023-01-26T17:50:52;;;;9.77768
62107;BMP280;48087;32.600;-97.100;2023-01-26T17:55:57;;;;10.055455
62107;BMP280;48087;32.600;-97.100;2023-01-26T18:01:00;;;;10.33323
62107;BMP280;48087;32.600;-97.100;2023-01-26T18:06:05;;;;10.111010000000002
62107;BMP280;48087;32.600;-97.100;2023-01-26T18:11:09;;;;10.277675
62107;BMP280;48087;32.600;-97.100;2023-01-26T18:16:14;;;;10.833225
62107;BMP280;48087;32.600;-97.100;2023-01-26T18:21:16;;;;10.722114999999999
62107;BMP280;48087;32.600;-97.100;2023-01-26T18:26:21;;;;10.55545
62107;BMP280;48087;32.600;-97.100;2023-01-26T18:31:24;;;;11.166555
62107;BMP280;48087;32.600;-97.100;2023-01-26T18:36:29;;;;11.22211
62107;BMP280;48087;32.600;-97.100;2023-01-26T18:41:32;;;;11.277664999999999
62107;BMP280;48087;32.600;-97.100;2023-01-26T18:46:37;;;;11.111
62107;BMP280;48087;32.600;-97.100;2023-01-26T18:51:40;;;;11.666549999999999
62107;BMP280;48087;32.600;-97.100;2023-01-26T18:56:44;;;;11.944325
62107;BMP280;48087;32.600;-97.100;2023-01-26T19:01:48;;;;11.499885
62107;BMP280;48087;32.600;-97.100;2023-01-26T19:06:53;;;;12.110989999999997
62107;BMP280;48087;32.600;-97.100;2023-01-26T19:11:56;;;;12.610985000000001
62107;BMP280;48087;32.600;-97.100;2023-01-26T19:17:00;;;;11.999880000000001
62107;BMP280;48087;32.600;-97.100;2023-01-26T19:22:03;;;;12.333210000000001
62107;BMP280;48087;32.600;-97.100;2023-01-26T19:27:09;;;;12.277655000000001
62107;BMP280;48087;32.600;-97.100;2023-01-26T19:32:12;;;;12.499875
62107;BMP280;48087;32.600;-97.100;2023-01-26T19:37:17;;;;12.99987
62107;BMP280;48087;32.600;-97.100;2023-01-26T19:42:20;;;;12.99987
62107;BMP280;48087;32.600;-97.100;2023-01-26T19:47:24;;;;13.166535000000001
62107;BMP280;48087;32.600;-97.100;2023-01-26T19:52:27;;;;12.888760000000001
62107;BMP280;48087;32.600;-97.100;2023-01-26T19:57:33;;;;12.610985000000001
62107;BMP280;48087;32.600;-97.100;2023-01-26T20:02:36;;;;12.888760000000001
62107;BMP280;48087;32.600;-97.100;2023-01-26T20:07:41;;;;12.388764999999998
62107;BMP280;48087;32.600;-97.100;2023-01-26T20:12:43;;;;13.222089999999998
62107;BMP280;48087;32.600;-97.100;2023-01-26T20:17:48;;;;12.722095
62107;BMP280;48087;32.600;-97.100;2023-01-26T20:22:51;;;;13.277645
62107;BMP280;48087;32.600;-97.100;2023-01-26T20:27:57;;;;13.11098
62107;BMP280;48087;32.600;-97.100;2023-01-26T20:33:00;;;;13.3332
62107;BMP280;48087;32.600;-97.100;2023-01-26T20:38:04;;;;12.722095
62107;BMP280;48087;32.600;-97.100;2023-01-26T20:43:08;;;;13.444310000000002
62107;BMP280;48087;32.600;-97.100;2023-01-26T20:48:13;;;;14.055414999999998
62107;BMP280;48087;32.600;-97.100;2023-01-26T20:53:15;;;;14.166525
62107;BMP280;48087;32.600;-97.100;2023-01-26T20:58:20;;;;13.999860000000002
62107;BMP280;48087;32.600;-97.100;2023-01-26T21:03:55;;;;13.66653
62107;BMP280;48087;32.600;-97.100;2023-01-26T21:09:00;;;;14.388744999999998
62107;BMP280;48087;32.600;-97.100;2023-01-26T21:14:03;;;;14.22208
62107;BMP280;48087;32.600;-97.100;2023-01-26T21:19:08;;;;13.999860000000002
62107;BMP280;48087;32.600;-97.100;2023-01-26T21:24:11;;;;13.944305
62107;BMP280;48087;32.600;-97.100;2023-01-26T21:29:16;;;;14.277635000000002
62107;BMP280;48087;32.600;-97.100;2023-01-26T21:34:19;;;;14.055414999999998
62107;BMP280;48087;32.600;-97.100;2023-01-26T21:39:24;;;;14.277635000000002
62107;BMP280;48087;32.600;-97.100;2023-01-26T21:44:28;;;;14.277635000000002
62107;BMP280;48087;32.600;-97.100;2023-01-26T21:49:32;;;;14.4443
62107;BMP280;48087;32.600;-97.100;2023-01-26T21:54:36;;;;14.277635000000002
62107;BMP280;48087;32.600;-97.100;2023-01-26T21:59:40;;;;13.777639999999998
62107;BMP280;48087;32.600;-97.100;2023-01-26T22:04:43;;;;14.22208
62107;BMP280;48087;32.600;-97.100;2023-01-26T22:09:48;;;;14.110969999999998
62107;BMP280;48087;32.600;-97.100;2023-01-26T22:14:51;;;;13.277645
62107;BMP280;48087;32.600;-97.100;2023-01-26T22:19:56;;;;13.722085000000002
62107;BMP280;48087;32.600;-97.100;2023-01-26T22:24:59;;;;13.55542
62107;BMP280;48087;32.600;-97.100;2023-01-26T22:30:04;;;;13.777639999999998
62107;BMP280;48087;32.600;-97.100;2023-01-26T22:35:07;;;;13.722085000000002
62107;BMP280;48087;32.600;-97.100;2023-01-26T22:45:15;;;;14.055414999999998
62107;BMP280;48087;32.600;-97.100;2023-01-26T22:50:20;;;;13.388755
62107;BMP280;48087;32.600;-97.100;2023-01-26T22:55:23;;;;13.499864999999998
62107;BMP280;48087;32.600;-97.100;2023-01-26T23:00:27;;;;13.722085000000002
62107;BMP280;48087;32.600;-97.100;2023-01-26T23:05:31;;;;13.055425
62107;BMP280;48087;32.600;-97.100;2023-01-26T23:10:36;;;;12.722095
62107;BMP280;48087;32.600;-97.100;2023-01-26T23:15:39;;;;12.666539999999998
62107;BMP280;48087;32.600;-97.100;2023-01-26T23:20:44;;;;12.499875
62107;BMP280;48087;32.600;-97.100;2023-01-26T23:25:47;;;;12.610985000000001
62107;BMP280;48087;32.600;-97.100;2023-01-26T23:30:52;;;;12.722095
62107;BMP280;48087;32.600;-97.100;2023-01-26T23:35:55;;;;12.499875
62107;BMP280;48087;32.600;-97.100;2023-01-26T23:41:00;;;;12.277655000000001
62107;BMP280;48087;32.600;-97.100;2023-01-26T23:46:03;;;;11.722105
62107;BMP280;48087;32.600;-97.100;2023-01-26T23:51:09;;;;11.22211
62107;BMP280;48087;32.600;-97.100;2023-01-26T23:56:13;;;;10.944335
